Time;durP1;ratioP1;P1;durP2;ratioP2;P2;SDS_P1;SDS_P2;PMS_P1;PMS_P2;Temp;Humidity;BMP_temperature;BMP_pressure;BME280_temperature;BME280_humidity;BME280_pressure;Samples;Min_cycle;Max_cycle;Signal;HPM_P1;HPM_P2
2023/09/09 00:01:17;;;;;;;10.57;9.68;;;20.20;99.90;;;;;;5023810;28;20046;-85
2023/09/09 00:03:43;;;;;;;10.27;9.32;;;20.10;99.90;;;;;;5010812;28;20041;-82
2023/09/09 00:06:10;;;;;;;10.90;9.73;;;20.20;99.90;;;;;;5019056;28;20053;-83
2023/09/09 00:08:36;;;;;;;11.70;10.60;;;20.10;99.90;;;;;;5019781;28;20083;-83
2023/09/09 00:11:02;;;;;;;12.88;10.73;;;20.10;99.90;;;;;;5025617;28;20513;-83
2023/09/09 00:13:28;;;;;;;12.13;10.95;;;20.10;99.90;;;;;;5024013;28;20041;-84
2023/09/09 00:15:54;;;;;;;12.95;10.43;;;20.60;99.90;;;;;;5017154;28;20065;-84
2023/09/09 00:18:20;;;;;;;10.75;9.75;;;20.10;99.90;;;;;;5020301;28;20599;-85
2023/09/09 00:20:46;;;;;;;11.65;9.98;;;20.10;99.90;;;;;;5024946;28;20065;-82
2023/09/09 00:23:12;;;;;;;10.70;9.63;;;20.10;99.90;;;;;;5018623;28;20474;-82
2023/09/09 00:25:40;;;;;;;11.55;10.40;;;20.10;99.90;;;;;;5023461;28;20041;-84
2023/09/09 00:28:07;;;;;;;13.05;10.45;;;20.20;99.90;;;;;;5022052;28;20076;-83
2023/09/09 00:30:34;;;;;;;10.73;9.75;;;20.10;99.90;;;;;;5021625;28;20381;-83
2023/09/09 00:33:00;;;;;;;12.32;9.30;;;20.10;99.90;;;;;;5021063;28;20045;-82
2023/09/09 00:35:26;;;;;;;10.70;9.70;;;19.50;99.90;;;;;;5023984;28;20140;-85
2023/09/09 00:37:51;;;;;;;10.63;9.73;;;19.90;99.90;;;;;;5024674;28;20505;-82
2023/09/09 00:40:17;;;;;;;9.80;8.90;;;19.90;99.90;;;;;;5027334;28;20080;-82
2023/09/09 00:42:43;;;;;;;10.55;9.60;;;19.90;99.90;;;;;;5028848;28;20485;-83
2023/09/09 00:45:10;;;;;;;10.23;9.20;;;19.90;99.90;;;;;;5025945;28;20037;-83
2023/09/09 00:47:36;;;;;;;10.25;9.30;;;19.90;99.90;;;;;;5028045;28;20068;-83
2023/09/09 00:50:03;;;;;;;10.00;9.20;;;19.80;99.90;;;;;;5026574;28;20489;-85
2023/09/09 00:52:29;;;;;;;9.40;8.68;;;19.80;99.90;;;;;;5024037;28;20120;-84
2023/09/09 00:54:55;;;;;;;10.80;9.80;;;20.00;99.90;;;;;;5046965;28;20476;-83
2023/09/09 00:57:20;;;;;;;10.98;9.88;;;19.70;99.90;;;;;;5026230;28;20099;-82
2023/09/09 00:59:49;;;;;;;12.38;9.85;;;19.80;99.90;;;;;;5032994;28;20124;-83
2023/09/09 01:02:15;;;;;;;9.35;8.68;;;19.70;99.90;;;;;;5031728;28;20528;-85
2023/09/09 01:04:40;;;;;;;10.40;9.07;;;19.60;99.90;;;;;;5031518;28;20133;-83
2023/09/09 01:07:07;;;;;;;9.60;8.80;;;19.50;99.90;;;;;;5021481;28;20046;-82
2023/09/09 01:09:33;;;;;;;10.40;9.35;;;19.50;99.90;;;;;;5021618;28;20050;-85
2023/09/09 01:11:59;;;;;;;9.75;8.88;;;19.50;99.90;;;;;;5033038;28;20042;-85
2023/09/09 01:14:25;;;;;;;9.65;8.75;;;19.50;99.90;;;;;;5034045;28;20331;-83
2023/09/09 01:16:52;;;;;;;10.23;9.30;;;19.50;99.90;;;;;;5022752;28;20445;-84
2023/09/09 01:19:25;;;;;;;9.52;8.15;;;19.40;99.90;;;;;;5031330;28;20042;-84
2023/09/09 01:21:51;;;;;;;11.45;9.32;;;19.70;99.90;;;;;;5021641;28;20415;-84
2023/09/09 01:24:17;;;;;;;9.75;8.95;;;19.40;99.90;;;;;;5022156;28;20037;-85
2023/09/09 01:26:46;;;;;;;10.75;9.48;;;19.30;99.90;;;;;;5024448;28;20100;-83
2023/09/09 01:29:12;;;;;;;11.00;9.98;;;19.80;99.90;;;;;;5020554;28;20071;-83
2023/09/09 01:31:38;;;;;;;10.82;9.77;;;19.20;99.90;;;;;;5021234;28;20038;-85
2023/09/09 01:34:03;;;;;;;10.73;9.52;;;19.20;99.90;;;;;;5025381;28;20513;-87
2023/09/09 01:36:29;;;;;;;10.50;9.60;;;19.30;99.90;;;;;;5029225;28;20048;-83
2023/09/09 01:38:55;;;;;;;10.52;9.43;;;19.30;99.90;;;;;;5019360;28;20045;-86
2023/09/09 01:41:20;;;;;;;10.85;9.75;;;19.30;99.90;;;;;;5020653;28;20042;-84
2023/09/09 01:43:46;;;;;;;11.60;10.45;;;19.60;99.90;;;;;;5028798;28;20659;-83
2023/09/09 01:46:12;;;;;;;12.40;11.07;;;19.20;99.90;;;;;;5024163;28;20037;-85
2023/09/09 01:48:37;;;;;;;12.18;10.98;;;19.20;99.90;;;;;;5021939;28;20057;-83
2023/09/09 01:51:03;;;;;;;13.20;11.45;;;19.20;99.90;;;;;;5025952;28;20041;-84
2023/09/09 01:53:29;;;;;;;11.57;10.50;;;19.20;99.90;;;;;;5020950;28;20579;-85
2023/09/09 01:55:58;;;;;;;10.95;9.68;;;19.10;99.90;;;;;;5024700;28;20520;-85
2023/09/09 01:58:24;;;;;;;11.15;10.00;;;19.10;99.90;;;;;;5031439;28;20053;-83
2023/09/09 02:00:49;;;;;;;11.52;9.30;;;19.10;99.90;;;;;;5021802;28;20050;-85
2023/09/09 02:03:15;;;;;;;10.57;9.52;;;19.10;99.90;;;;;;5024825;28;20124;-84
2023/09/09 02:05:41;;;;;;;12.60;10.30;;;19.20;99.90;;;;;;5029367;28;20120;-82
2023/09/09 02:08:07;;;;;;;10.65;9.75;;;19.10;99.90;;;;;;5022727;28;20179;-84
2023/09/09 02:10:32;;;;;;;12.02;10.93;;;19.10;99.90;;;;;;5029637;28;20073;-84
2023/09/09 02:12:58;;;;;;;14.77;10.75;;;19.00;99.90;;;;;;5023893;28;20405;-85
2023/09/09 02:15:24;;;;;;;11.95;10.75;;;19.00;99.90;;;;;;5002909;28;20053;-84
2023/09/09 02:17:49;;;;;;;12.52;11.35;;;19.00;99.90;;;;;;5022783;28;20132;-83
2023/09/09 02:20:15;;;;;;;12.57;11.43;;;19.00;99.90;;;;;;5010983;28;20037;-83
2023/09/09 02:22:41;;;;;;;13.30;11.77;;;19.00;99.90;;;;;;5024722;28;20501;-82
2023/09/09 02:25:08;;;;;;;12.55;11.40;;;19.00;99.90;;;;;;5020548;28;20117;-84
2023/09/09 02:27:34;;;;;;;12.48;11.23;;;18.90;99.90;;;;;;5027586;28;20118;-84
2023/09/09 02:30:00;;;;;;;12.77;11.52;;;18.90;99.90;;;;;;5024134;28;20146;-84
2023/09/09 02:32:26;;;;;;;12.88;11.68;;;18.90;99.90;;;;;;5024368;28;20038;-82
2023/09/09 02:34:52;;;;;;;13.02;11.00;;;18.90;99.90;;;;;;5023788;28;20049;-84
2023/09/09 02:37:20;;;;;;;13.70;11.75;;;18.90;99.90;;;;;;5023809;28;20045;-83
2023/09/09 02:39:46;;;;;;;13.85;11.85;;;18.90;99.90;;;;;;5027600;28;20033;-83
2023/09/09 02:42:18;;;;;;;12.07;10.15;;;18.90;99.90;;;;;;5025081;28;20054;-85
2023/09/09 02:44:44;;;;;;;12.20;11.00;;;18.30;99.90;;;;;;5022233;28;20065;-83
2023/09/09 02:47:12;;;;;;;11.38;10.32;;;18.90;99.90;;;;;;5027722;28;20061;-84
2023/09/09 02:49:38;;;;;;;12.23;11.02;;;19.30;99.90;;;;;;5025704;28;20045;-85
2023/09/09 02:52:05;;;;;;;11.60;10.65;;;18.80;99.90;;;;;;5024822;28;20044;-83
2023/09/09 02:54:30;;;;;;;13.50;12.30;;;18.90;99.90;;;;;;5029563;28;20513;-82
2023/09/09 02:56:56;;;;;;;14.38;12.65;;;18.90;99.90;;;;;;5024259;28;20084;-85
2023/09/09 02:59:23;;;;;;;13.52;12.27;;;18.80;99.90;;;;;;5023244;28;20381;-85
2023/09/09 03:01:49;;;;;;;13.68;12.32;;;18.80;99.90;;;;;;5027230;28;20098;-85
2023/09/09 03:04:15;;;;;;;14.60;13.23;;;18.80;99.90;;;;;;5018760;28;20038;-84
2023/09/09 03:06:41;;;;;;;14.57;12.98;;;18.80;99.90;;;;;;5026196;28;20197;-84
2023/09/09 03:09:06;;;;;;;14.73;13.32;;;18.80;99.90;;;;;;5028561;28;20401;-83
2023/09/09 03:11:32;;;;;;;16.25;14.50;;;18.80;99.90;;;;;;5026612;28;20037;-83
2023/09/09 03:13:59;;;;;;;20.25;12.90;;;18.70;99.90;;;;;;5024382;28;20051;-83
2023/09/09 03:16:24;;;;;;;15.00;13.50;;;18.80;99.90;;;;;;5020674;28;20042;-83
2023/09/09 03:18:50;;;;;;;15.07;13.57;;;18.70;99.90;;;;;;5020940;28;20410;-84
2023/09/09 03:21:16;;;;;;;15.07;13.40;;;18.40;99.90;;;;;;5021197;28;20124;-82
2023/09/09 03:23:42;;;;;;;15.90;14.25;;;18.70;99.90;;;;;;5021576;28;20034;-83
2023/09/09 03:26:09;;;;;;;15.15;13.85;;;18.40;99.90;;;;;;5028956;28;20049;-83
2023/09/09 03:28:35;;;;;;;16.73;15.13;;;18.70;99.90;;;;;;5037626;28;20037;-83
2023/09/09 03:31:01;;;;;;;17.88;15.98;;;18.70;99.90;;;;;;5023415;28;20045;-83
2023/09/09 03:33:31;;;;;;;16.42;14.82;;;18.70;99.90;;;;;;5022631;28;20037;-85
2023/09/09 03:35:57;;;;;;;17.83;16.02;;;18.70;99.90;;;;;;5021559;28;20049;-85
2023/09/09 03:38:22;;;;;;;17.98;16.08;;;18.80;99.90;;;;;;5021595;28;20042;-82
2023/09/09 03:40:48;;;;;;;17.25;15.75;;;18.70;99.90;;;;;;5008798;28;20075;-83
2023/09/09 03:43:14;;;;;;;17.85;15.95;;;19.00;99.90;;;;;;5021557;28;20045;-84
2023/09/09 03:45:40;;;;;;;18.23;16.52;;;18.70;99.90;;;;;;5019954;28;20458;-85
2023/09/09 03:48:06;;;;;;;19.73;17.73;;;18.70;99.90;;;;;;5026443;28;20141;-86
2023/09/09 03:50:32;;;;;;;17.10;15.65;;;18.60;99.90;;;;;;5023315;28;20438;-85
2023/09/09 03:52:58;;;;;;;19.17;17.38;;;18.60;99.90;;;;;;5021138;28;20379;-85
2023/09/09 03:55:25;;;;;;;19.33;17.52;;;18.60;99.90;;;;;;5018432;28;20471;-83
2023/09/09 03:57:51;;;;;;;19.70;17.88;;;18.60;99.90;;;;;;5020687;28;20046;-82
2023/09/09 04:00:17;;;;;;;20.25;18.27;;;18.70;99.90;;;;;;5021244;28;20108;-83
2023/09/09 04:02:43;;;;;;;20.95;18.88;;;18.60;99.90;;;;;;5029577;28;20041;-83
2023/09/09 04:05:09;;;;;;;20.58;18.63;;;19.10;99.90;;;;;;5025562;28;20033;-83
2023/09/09 04:07:36;;;;;;;19.42;17.63;;;18.60;99.90;;;;;;5019311;28;20049;-84
2023/09/09 04:10:05;;;;;;;21.15;19.10;;;18.60;99.90;;;;;;5025112;28;20046;-85
2023/09/09 04:12:31;;;;;;;21.75;19.55;;;18.70;99.90;;;;;;5018864;28;20126;-81
2023/09/09 04:14:57;;;;;;;20.52;18.42;;;18.70;99.90;;;;;;5026487;28;20041;-82
2023/09/09 04:17:23;;;;;;;21.40;19.35;;;18.60;99.90;;;;;;5031603;28;20045;-83
2023/09/09 04:19:48;;;;;;;20.77;18.63;;;18.60;99.90;;;;;;5029273;28;20136;-84
2023/09/09 04:22:14;;;;;;;20.88;18.48;;;18.60;99.90;;;;;;5021275;28;20144;-84
2023/09/09 04:24:39;;;;;;;22.05;20.05;;;18.60;99.90;;;;;;5029608;28;20505;-83
2023/09/09 04:27:05;;;;;;;23.30;21.05;;;18.50;99.90;;;;;;5025302;28;20128;-83
2023/09/09 04:29:31;;;;;;;23.08;20.67;;;18.50;99.90;;;;;;5026650;28;20041;-85
2023/09/09 04:31:57;;;;;;;22.05;19.85;;;18.50;99.90;;;;;;5031606;28;20060;-84
2023/09/09 04:34:23;;;;;;;23.17;20.75;;;18.40;99.90;;;;;;5028472;28;20405;-85
2023/09/09 04:36:49;;;;;;;22.83;20.45;;;18.40;99.90;;;;;;5032022;28;20045;-84
2023/09/09 04:39:15;;;;;;;22.02;19.85;;;18.40;99.90;;;;;;5026088;28;20038;-87
2023/09/09 04:41:44;;;;;;;22.52;20.23;;;18.40;99.90;;;;;;5023557;28;20100;-86
2023/09/09 04:44:10;;;;;;;21.60;19.40;;;18.40;99.90;;;;;;5028113;28;20057;-86
2023/09/09 04:46:36;;;;;;;21.63;19.42;;;18.40;99.90;;;;;;5026814;28;20042;-85
2023/09/09 04:49:03;;;;;;;21.45;19.25;;;18.40;99.90;;;;;;5024447;28;20053;-85
2023/09/09 04:51:29;;;;;;;21.23;17.95;;;18.30;99.90;;;;;;5032556;28;20381;-84
2023/09/09 04:53:55;;;;;;;20.83;18.88;;;18.40;99.90;;;;;;5031149;28;20124;-83
2023/09/09 04:56:20;;;;;;;27.25;23.85;;;18.40;99.90;;;;;;5025133;28;20060;-85
2023/09/09 04:58:46;;;;;;;22.42;20.05;;;18.30;99.90;;;;;;5033555;28;20045;-82
2023/09/09 05:01:12;;;;;;;20.77;18.60;;;18.30;99.90;;;;;;5024662;28;20049;-84
2023/09/09 05:03:37;;;;;;;21.35;19.17;;;18.40;99.90;;;;;;5026207;28;20088;-83
2023/09/09 05:06:03;;;;;;;20.25;18.42;;;18.30;99.90;;;;;;5040247;28;20041;-83
2023/09/09 05:08:29;;;;;;;20.10;18.10;;;18.20;99.90;;;;;;5023387;28;20053;-85
2023/09/09 05:10:54;;;;;;;21.70;19.58;;;18.30;99.90;;;;;;5029809;28;20076;-82
2023/09/09 05:13:20;;;;;;;21.40;19.33;;;18.30;99.90;;;;;;5029022;28;20464;-83
2023/09/09 05:15:47;;;;;;;20.20;18.10;;;18.30;99.90;;;;;;5030453;28;20128;-83
2023/09/09 05:18:12;;;;;;;21.67;19.55;;;18.30;99.90;;;;;;5025127;28;20095;-83
2023/09/09 05:20:38;;;;;;;21.17;19.08;;;18.20;99.90;;;;;;5024390;28;20045;-83
2023/09/09 05:23:04;;;;;;;24.65;22.08;;;18.20;99.90;;;;;;5023075;28;20045;-87
2023/09/09 05:25:29;;;;;;;24.77;22.48;;;18.20;99.90;;;;;;5028994;28;20120;-83
2023/09/09 05:27:55;;;;;;;22.58;20.42;;;18.20;99.90;;;;;;5021119;28;20046;-84
2023/09/09 05:30:21;;;;;;;21.80;19.70;;;18.20;99.90;;;;;;5024667;28;20069;-82
2023/09/09 05:32:46;;;;;;;22.73;20.63;;;18.20;99.90;;;;;;5020793;28;20046;-83
2023/09/09 05:35:12;;;;;;;21.33;19.23;;;18.20;99.90;;;;;;5028810;28;20080;-83
2023/09/09 05:37:40;;;;;;;22.40;20.05;;;18.30;99.90;;;;;;5020490;28;20482;-84
2023/09/09 05:40:06;;;;;;;21.80;19.67;;;18.20;99.90;;;;;;5024384;28;20467;-84
2023/09/09 05:42:31;;;;;;;20.67;18.65;;;18.20;99.90;;;;;;5025055;28;20099;-84
2023/09/09 05:44:57;;;;;;;22.02;19.80;;;18.20;99.90;;;;;;5029861;28;20049;-85
2023/09/09 05:47:23;;;;;;;21.80;19.35;;;18.20;99.90;;;;;;5031052;28;20065;-83
2023/09/09 05:49:48;;;;;;;23.27;20.92;;;18.20;99.90;;;;;;5023885;28;20516;-84
2023/09/09 05:52:14;;;;;;;23.33;21.05;;;18.20;99.90;;;;;;5021199;28;20476;-83
2023/09/09 05:54:41;;;;;;;24.50;22.00;;;18.20;99.90;;;;;;5024595;28;20567;-83
2023/09/09 05:57:08;;;;;;;21.60;19.45;;;18.30;99.90;;;;;;5030246;28;20041;-86
2023/09/09 05:59:34;;;;;;;21.27;19.30;;;18.30;99.90;;;;;;5026248;28;20033;-85
2023/09/09 06:02:00;;;;;;;21.65;19.33;;;18.30;99.90;;;;;;5022652;28;20057;-86
2023/09/09 06:04:25;;;;;;;21.45;19.23;;;18.30;99.90;;;;;;5006928;28;20049;-84
2023/09/09 06:06:51;;;;;;;25.15;22.55;;;18.40;99.90;;;;;;5022465;28;20081;-85
2023/09/09 06:09:17;;;;;;;24.92;22.23;;;18.30;99.90;;;;;;5020004;28;20042;-84
2023/09/09 06:11:43;;;;;;;22.52;20.40;;;18.30;99.90;;;;;;5034113;28;20041;-85
2023/09/09 06:14:08;;;;;;;23.13;20.80;;;18.30;99.90;;;;;;5028090;28;20496;-88
2023/09/09 06:16:34;;;;;;;22.25;20.15;;;18.30;99.90;;;;;;5004956;28;20046;-87
2023/09/09 06:19:00;;;;;;;24.83;21.48;;;18.90;99.90;;;;;;5022520;28;20048;-85
2023/09/09 06:21:26;;;;;;;22.77;20.42;;;18.40;99.90;;;;;;5021966;28;20395;-84
2023/09/09 06:23:51;;;;;;;25.80;22.35;;;18.50;99.90;;;;;;5024785;28;20041;-84
2023/09/09 06:26:17;;;;;;;27.33;24.75;;;18.50;99.90;;;;;;5028265;28;20042;-85
2023/09/09 06:28:43;;;;;;;29.63;26.55;;;18.50;99.90;;;;;;5023603;28;20048;-85
2023/09/09 06:31:08;;;;;;;25.80;23.25;;;18.50;99.90;;;;;;5022470;28;20041;-84
2023/09/09 06:33:34;;;;;;;25.65;23.15;;;18.60;99.90;;;;;;5026201;28;20438;-85
2023/09/09 06:36:00;;;;;;;25.92;23.50;;;18.50;99.90;;;;;;5027224;28;20041;-85
2023/09/09 06:38:25;;;;;;;25.63;23.05;;;18.60;99.90;;;;;;5027081;28;20038;-84
2023/09/09 06:40:51;;;;;;;32.70;29.48;;;18.60;99.90;;;;;;5020272;28;20052;-85
2023/09/09 06:43:21;;;;;;;32.42;29.08;;;18.70;99.90;;;;;;5022334;28;20080;-84
2023/09/09 06:45:48;;;;;;;33.05;29.75;;;18.90;99.90;;;;;;5024165;28;20117;-84
2023/09/09 06:48:17;;;;;;;34.45;29.98;;;18.70;99.90;;;;;;5021181;28;20053;-85
2023/09/09 06:50:49;;;;;;;35.10;31.52;;;19.20;99.90;;;;;;5006318;28;20076;-84
2023/09/09 06:53:15;;;;;;;31.77;28.05;;;19.70;99.90;;;;;;5021644;28;20108;-85
2023/09/09 06:55:44;;;;;;;36.95;32.17;;;18.70;99.90;;;;;;5019004;28;20041;-86
2023/09/09 06:58:12;;;;;;;30.25;27.33;;;18.80;99.90;;;;;;5023800;28;20045;-85
2023/09/09 07:00:38;;;;;;;33.30;28.67;;;18.80;99.90;;;;;;5028519;28;20136;-85
2023/09/09 07:03:05;;;;;;;30.77;27.58;;;18.90;99.90;;;;;;5022929;28;20037;-85
2023/09/09 07:05:31;;;;;;;35.28;31.90;;;18.90;99.90;;;;;;5019320;28;20104;-85
2023/09/09 07:07:57;;;;;;;38.30;33.13;;;18.90;99.90;;;;;;5018387;28;20084;-87
2023/09/09 07:10:25;;;;;;;34.50;30.85;;;19.00;99.90;;;;;;5020303;28;20125;-86
2023/09/09 07:12:52;;;;;;;35.60;32.00;;;19.00;99.90;;;;;;5020597;28;20057;-86
2023/09/09 07:15:18;;;;;;;38.00;34.50;;;19.10;99.90;;;;;;5023439;28;20038;-85
2023/09/09 07:17:48;;;;;;;35.60;31.77;;;19.10;99.90;;;;;;5023218;28;20037;-87
2023/09/09 07:20:14;;;;;;;40.47;36.30;;;19.20;99.90;;;;;;5022508;28;20045;-88
2023/09/09 07:22:40;;;;;;;42.55;38.00;;;19.20;99.90;;;;;;5019012;28;20421;-86
2023/09/09 07:25:06;;;;;;;43.58;39.35;;;18.80;99.90;;;;;;5028104;28;20041;-86
2023/09/09 07:27:32;;;;;;;39.42;35.55;;;19.30;99.90;;;;;;5021845;28;20131;-86
2023/09/09 07:29:58;;;;;;;44.80;40.40;;;19.30;99.90;;;;;;5021531;28;20058;-86
2023/09/09 07:32:24;;;;;;;41.67;37.40;;;19.40;99.90;;;;;;5023632;28;20026;-84
2023/09/09 07:34:50;;;;;;;42.08;37.55;;;19.50;99.90;;;;;;5019233;28;20049;-84
2023/09/09 07:37:16;;;;;;;47.72;42.80;;;19.50;99.90;;;;;;5024905;28;20052;-82
2023/09/09 07:39:52;;;;;;;45.00;40.47;;;19.50;99.90;;;;;;5023628;28;20045;-81
2023/09/09 07:42:18;;;;;;;42.78;38.25;;;19.60;99.90;;;;;;5022764;28;20163;-81
2023/09/09 07:44:44;;;;;;;43.00;38.80;;;20.50;99.90;;;;;;5020965;28;20036;-81
2023/09/09 07:47:10;;;;;;;43.53;39.20;;;19.80;99.90;;;;;;5023363;28;20061;-81
2023/09/09 07:49:36;;;;;;;41.67;37.65;;;19.80;99.90;;;;;;5025796;28;20057;-81
2023/09/09 07:52:03;;;;;;;42.65;38.33;;;19.90;99.90;;;;;;5027146;28;20038;-81
2023/09/09 07:54:32;;;;;;;42.35;38.13;;;20.80;99.90;;;;;;5029266;28;20049;-81
2023/09/09 07:57:02;;;;;;;39.97;36.10;;;20.10;99.90;;;;;;5025817;28;20042;-81
2023/09/09 07:59:30;;;;;;;38.08;34.38;;;20.20;99.90;;;;;;5028444;28;20109;-81
2023/09/09 08:01:56;;;;;;;37.38;33.75;;;20.20;99.90;;;;;;5013421;28;20042;-81
2023/09/09 08:04:23;;;;;;;40.55;36.25;;;20.20;99.90;;;;;;5022336;28;20048;-81
2023/09/09 08:06:52;;;;;;;38.47;34.38;;;20.20;99.90;;;;;;5018206;28;20121;-80
2023/09/09 08:09:19;;;;;;;36.22;32.50;;;20.30;99.90;;;;;;5017271;28;20083;-81
2023/09/09 08:11:45;;;;;;;37.13;33.33;;;20.40;99.90;;;;;;5023188;28;20500;-81
2023/09/09 08:14:10;;;;;;;38.45;34.65;;;20.40;99.90;;;;;;5027270;28;20157;-85
2023/09/09 08:16:36;;;;;;;37.67;33.58;;;20.50;99.90;;;;;;5026626;28;20044;-85
2023/09/09 08:19:01;;;;;;;37.65;33.75;;;20.50;99.90;;;;;;5027615;28;20033;-84
2023/09/09 08:21:27;;;;;;;38.13;34.15;;;20.60;99.90;;;;;;5018723;28;20053;-85
2023/09/09 08:23:53;;;;;;;35.40;32.10;;;20.70;99.90;;;;;;5022432;28;20056;-85
2023/09/09 08:26:19;;;;;;;38.65;34.78;;;20.70;99.90;;;;;;5027655;28;20105;-84
2023/09/09 08:28:44;;;;;;;34.05;30.67;;;20.80;99.90;;;;;;5021951;28;20050;-85
2023/09/09 08:31:10;;;;;;;34.03;30.50;;;20.80;99.90;;;;;;5019059;28;20056;-84
2023/09/09 08:33:36;;;;;;;34.47;31.25;;;20.90;99.90;;;;;;5022509;28;20041;-84
2023/09/09 08:36:05;;;;;;;36.05;32.53;;;20.90;99.90;;;;;;5024370;28;20042;-84
2023/09/09 08:38:31;;;;;;;39.20;32.55;;;20.90;99.90;;;;;;5026632;28;20092;-84
2023/09/09 08:41:36;;;;;;;36.78;33.28;;;21.00;99.90;;;;;;5020443;28;20434;-84
2023/09/09 08:44:28;;;;;;;36.08;32.45;;;21.10;99.90;;;;;;5023953;28;20468;-85
2023/09/09 08:46:54;;;;;;;37.00;33.60;;;21.10;99.90;;;;;;5039253;28;20132;-84
2023/09/09 08:49:23;;;;;;;35.85;32.45;;;21.20;99.90;;;;;;5028223;28;20049;-84
2023/09/09 08:51:57;;;;;;;35.60;32.00;;;21.30;99.90;;;;;;5019337;28;20125;-85
2023/09/09 08:54:25;;;;;;;34.50;31.27;;;21.40;99.90;;;;;;5021724;28;20038;-85
2023/09/09 08:56:51;;;;;;;34.65;31.13;;;21.40;99.90;;;;;;5023963;28;20049;-83
2023/09/09 08:59:18;;;;;;;30.48;27.58;;;21.60;99.90;;;;;;5028479;28;20077;-84
2023/09/09 09:01:45;;;;;;;33.75;30.50;;;21.70;99.90;;;;;;5019006;28;20072;-84
2023/09/09 09:04:12;;;;;;;32.13;29.00;;;21.80;99.90;;;;;;5027499;28;20041;-84
2023/09/09 09:06:39;;;;;;;33.50;29.90;;;21.90;99.90;;;;;;5037946;28;20081;-83
2023/09/09 09:09:05;;;;;;;35.38;31.88;;;22.00;99.90;;;;;;5028478;28;20636;-84
2023/09/09 09:11:31;;;;;;;36.47;32.72;;;22.10;99.90;;;;;;5028891;28;20128;-83
2023/09/09 09:14:06;;;;;;;36.03;32.35;;;22.20;99.90;;;;;;5006787;28;20061;-84
2023/09/09 09:16:32;;;;;;;35.85;32.25;;;22.40;99.90;;;;;;5044568;28;20069;-85
2023/09/09 09:19:02;;;;;;;35.00;31.70;;;22.40;99.90;;;;;;5030390;28;20057;-85
2023/09/09 09:21:35;;;;;;;33.35;30.10;;;22.50;99.90;;;;;;5028880;28;20062;-84
2023/09/09 09:24:02;;;;;;;35.28;32.03;;;22.60;99.90;;;;;;5021439;28;20049;-83
2023/09/09 09:26:29;;;;;;;34.15;30.75;;;22.60;99.90;;;;;;5022042;28;20050;-83
2023/09/09 09:28:55;;;;;;;37.88;34.25;;;22.70;99.90;;;;;;5024146;28;20144;-83
2023/09/09 09:31:23;;;;;;;33.90;30.42;;;22.80;99.90;;;;;;5025692;28;20103;-81
2023/09/09 09:33:56;;;;;;;36.05;32.65;;;22.90;99.90;;;;;;5031134;28;20050;-81
2023/09/09 09:36:22;;;;;;;36.40;32.53;;;22.90;99.90;;;;;;5025540;28;20052;-81
2023/09/09 09:38:52;;;;;;;35.67;32.15;;;23.00;99.90;;;;;;5018821;28;20125;-85
2023/09/09 09:41:23;;;;;;;35.40;31.67;;;23.00;99.90;;;;;;5022231;28;20485;-90
2023/09/09 09:43:52;;;;;;;37.00;33.22;;;23.10;99.90;;;;;;5019596;28;20049;-86
2023/09/09 09:46:19;;;;;;;35.83;31.80;;;23.10;99.90;;;;;;5003419;28;20037;-85
2023/09/09 09:48:45;;;;;;;38.20;34.53;;;23.20;99.90;;;;;;5027808;28;20489;-86
2023/09/09 09:51:11;;;;;;;35.90;32.17;;;23.20;99.90;;;;;;5022741;28;20598;-85
2023/09/09 09:53:52;;;;;;;35.58;30.95;;;23.20;99.90;;;;;;5023053;28;20453;-85
2023/09/09 09:56:19;;;;;;;34.70;31.30;;;23.40;99.90;;;;;;5020801;28;20065;-86
2023/09/09 09:58:46;;;;;;;37.75;33.80;;;23.40;99.90;;;;;;5019257;28;20498;-86
2023/09/09 10:01:12;;;;;;;34.65;31.17;;;23.40;99.90;;;;;;5016555;28;20077;-81
2023/09/09 10:03:47;;;;;;;36.00;30.15;;;23.40;99.90;;;;;;5029201;28;20445;-86
2023/09/09 10:06:20;;;;;;;35.63;31.95;;;23.50;99.90;;;;;;5023839;28;20037;-83
2023/09/09 10:08:49;;;;;;;37.03;31.85;;;23.60;99.90;;;;;;5019753;28;20042;-84
2023/09/09 10:11:18;;;;;;;36.60;32.67;;;23.60;99.90;;;;;;5021929;28;20084;-82
2023/09/09 10:14:22;;;;;;;32.65;29.33;;;23.70;99.90;;;;;;5002647;28;20053;-83
2023/09/09 10:16:50;;;;;;;29.75;26.80;;;23.80;99.90;;;;;;4969567;28;20047;-83
2023/09/09 10:19:16;;;;;;;38.40;32.65;;;23.80;99.90;;;;;;5009212;28;20068;-83
2023/09/09 10:21:43;;;;;;;36.80;33.10;;;23.90;99.90;;;;;;5025213;28;20041;-83
2023/09/09 10:24:10;;;;;;;28.75;25.77;;;23.90;99.90;;;;;;5028139;28;20099;-85
2023/09/09 10:26:37;;;;;;;28.05;25.13;;;24.00;99.90;;;;;;5021340;28;20037;-84
2023/09/09 10:29:04;;;;;;;26.08;23.45;;;24.00;99.90;;;;;;5027963;28;20073;-86
2023/09/09 10:31:31;;;;;;;24.55;22.08;;;24.10;99.90;;;;;;5017204;28;20077;-87
2023/09/09 10:33:59;;;;;;;28.17;25.17;;;24.20;99.90;;;;;;5026128;28;20045;-84
2023/09/09 10:36:26;;;;;;;24.08;21.75;;;24.20;99.90;;;;;;5003940;28;20041;-83
2023/09/09 10:38:55;;;;;;;24.30;20.30;;;24.20;99.90;;;;;;5029102;28;20083;-86
2023/09/09 10:41:21;;;;;;;22.17;20.05;;;24.30;99.90;;;;;;5013547;28;20045;-83
2023/09/09 10:43:47;;;;;;;25.48;23.13;;;24.30;99.90;;;;;;5004129;28;20060;-85
2023/09/09 10:46:13;;;;;;;27.95;25.15;;;24.30;99.90;;;;;;5021435;28;20045;-85
2023/09/09 10:48:44;;;;;;;23.75;21.40;;;24.40;99.90;;;;;;5023066;28;20089;-88
2023/09/09 10:51:15;;;;;;;22.85;20.75;;;24.40;99.90;;;;;;5021380;28;20045;-86
2023/09/09 10:53:41;;;;;;;22.25;19.92;;;24.50;99.90;;;;;;5004819;28;20056;-83
2023/09/09 10:56:15;;;;;;;23.75;21.13;;;24.60;99.90;;;;;;5020411;28;20046;-84
2023/09/09 10:58:44;;;;;;;22.30;20.20;;;24.60;99.90;;;;;;5026241;28;20406;-84
2023/09/09 11:01:28;;;;;;;22.55;20.25;;;24.80;99.90;;;;;;5019077;28;20042;-85
2023/09/09 11:03:53;;;;;;;;;;;24.90;99.90;;;;;;5023727;28;20037;-84
2023/09/09 11:06:24;;;;;;;21.50;18.00;;;24.90;99.90;;;;;;5022517;28;19928;-83
2023/09/09 11:08:54;;;;;;;17.10;15.48;;;25.00;99.90;;;;;;5020186;28;20403;-83
2023/09/09 11:11:30;;;;;;;17.85;13.75;;;25.00;99.90;;;;;;5027055;28;20048;-84
2023/09/09 11:14:03;;;;;;;18.48;16.65;;;25.00;99.90;;;;;;5020082;28;20061;-84
2023/09/09 11:16:36;;;;;;;17.35;14.77;;;25.20;99.90;;;;;;5018768;28;20038;-83
2023/09/09 11:19:12;;;;;;;14.40;12.90;;;25.30;99.90;;;;;;5022849;28;20049;-83
2023/09/09 11:21:44;;;;;;;18.50;14.25;;;25.30;99.90;;;;;;5022195;28;20037;-84
2023/09/09 11:24:10;;;;;;;12.40;11.30;;;25.40;99.90;;;;;;5022217;28;20056;-84
2023/09/09 11:26:41;;;;;;;14.38;12.90;;;25.50;99.90;;;;;;5021594;28;20065;-84
2023/09/09 11:29:08;;;;;;;13.65;12.18;;;25.60;99.90;;;;;;5019299;28;20077;-82
2023/09/09 11:31:33;;;;;;;13.45;12.32;;;25.60;99.90;;;;;;5018490;28;20030;-84
2023/09/09 11:34:00;;;;;;;14.63;12.90;;;25.70;99.90;;;;;;5021988;28;20481;-83
2023/09/09 11:36:27;;;;;;;12.63;10.80;;;25.80;99.90;;;;;;5022075;28;20030;-84
2023/09/09 11:38:55;;;;;;;12.50;11.20;;;25.80;99.90;;;;;;5021303;28;20094;-85
2023/09/09 11:41:24;;;;;;;18.33;12.52;;;26.00;99.90;;;;;;5021790;28;20042;-81
2023/09/09 11:44:16;;;;;;;14.02;12.73;;;26.00;99.90;;;;;;5022488;28;20497;-83
2023/09/09 11:46:47;;;;;;;15.43;13.20;;;26.10;99.90;;;;;;5018781;28;20049;-83
2023/09/09 11:49:16;;;;;;;13.98;12.23;;;26.20;99.90;;;;;;5019981;28;20050;-85
2023/09/09 11:51:45;;;;;;;11.80;10.60;;;26.20;99.90;;;;;;5017563;28;20048;-87
2023/09/09 11:54:17;;;;;;;12.50;9.55;;;26.30;99.90;;;;;;4328909;28;10000764;-85
2023/09/09 11:56:43;;;;;;;13.13;10.38;;;26.40;99.90;;;;;;5020328;28;20045;-89
2023/09/09 11:59:10;;;;;;;12.75;11.45;;;26.50;99.90;;;;;;5019726;28;20049;-86
2023/09/09 12:01:43;;;;;;;12.70;11.50;;;26.60;99.90;;;;;;5015540;28;20516;-86
2023/09/09 12:04:10;;;;;;;12.60;11.45;;;26.60;99.90;;;;;;5016099;28;20119;-87
2023/09/09 12:06:37;;;;;;;14.75;13.30;;;26.70;99.90;;;;;;5016199;28;20180;-86
2023/09/09 12:09:05;;;;;;;13.63;10.23;;;26.80;99.90;;;;;;5024376;28;20054;-88
2023/09/09 12:11:33;;;;;;;15.43;13.90;;;26.90;99.90;;;;;;5019993;28;20038;-84
2023/09/09 12:14:00;;;;;;;15.07;11.52;;;26.80;99.90;;;;;;5018161;28;20049;-84
2023/09/09 12:16:29;;;;;;;14.52;12.15;;;26.90;99.90;;;;;;5017228;28;20469;-84
2023/09/09 12:18:54;;;;;;;12.75;11.38;;;26.90;99.90;;;;;;5021426;28;20046;-83
2023/09/09 12:21:20;;;;;;;14.25;12.75;;;27.00;99.90;;;;;;5016913;28;20048;-84
2023/09/09 12:23:47;;;;;;;15.93;9.98;;;27.00;99.90;;;;;;5021233;28;20120;-84
2023/09/09 12:26:15;;;;;;;13.02;11.02;;;27.10;99.90;;;;;;5015519;28;20046;-84
2023/09/09 12:28:42;;;;;;;18.15;12.95;;;27.20;99.90;;;;;;5015343;28;20069;-83